Time;durP1;ratioP1;P1;durP2;ratioP2;P2;SDS_P1;SDS_P2;PMS_P1;PMS_P2;Temp;Humidity;BMP_temperature;BMP_pressure;BME280_temperature;BME280_humidity;BME280_pressure;Samples;Min_cycle;Max_cycle;Signal;HPM_P1;HPM_P2
2023/10/08 00:02:41;;;;;;;11.88;5.03;;;;;;;16.02;40.35;95047.75;4212113;28;20087;-71
2023/10/08 00:04:44;;;;;;;8.45;4.70;;;;;;;16.07;40.42;95045.41;4193862;28;20157;-71
2023/10/08 00:06:52;;;;;;;12.98;5.70;;;;;;;16.07;40.10;95048.84;4193944;28;20052;-72
2023/10/08 00:08:59;;;;;;;9.35;4.65;;;;;;;16.00;40.21;95044.47;4211366;28;20052;-73
2023/10/08 00:11:10;;;;;;;8.90;5.22;;;;;;;15.96;40.22;95041.41;4193899;28;20079;-70
2023/10/08 00:13:15;;;;;;;10.45;4.93;;;;;;;15.84;40.94;95041.03;4201978;28;20512;-71
2023/10/08 00:15:17;;;;;;;9.73;5.20;;;;;;;15.73;41.33;95042.31;4208621;28;20055;-72
2023/10/08 00:17:20;;;;;;;12.20;5.90;;;;;;;15.45;41.74;95044.72;4211849;28;20052;-69
2023/10/08 00:19:24;;;;;;;10.43;5.07;;;;;;;15.43;41.55;95040.63;4187281;28;20087;-70
2023/10/08 00:21:26;;;;;;;8.73;5.50;;;;;;;15.45;41.87;95036.81;4185444;28;20101;-70
2023/10/08 00:23:30;;;;;;;9.10;4.50;;;;;;;15.42;41.41;95033.69;4185023;28;20071;-72
2023/10/08 00:25:34;;;;;;;9.00;4.97;;;;;;;15.52;41.12;95029.78;4211908;28;20047;-69
2023/10/08 00:27:54;;;;;;;8.38;4.80;;;;;;;15.62;40.91;95023.44;4205534;28;20051;-71
2023/10/08 00:29:56;;;;;;;8.95;4.32;;;;;;;15.72;40.77;95016.91;4197992;28;20070;-69
2023/10/08 00:31:59;;;;;;;7.73;5.00;;;;;;;15.84;40.49;95019.91;4190700;28;20056;-72
2023/10/08 00:34:04;;;;;;;7.47;4.20;;;;;;;15.91;40.40;95020.78;4200082;28;20201;-72
2023/10/08 00:36:18;;;;;;;7.47;3.92;;;;;;;15.95;40.19;95013.31;4208114;28;20052;-72
2023/10/08 00:38:20;;;;;;;8.57;4.63;;;;;;;15.91;40.48;95023.44;4207256;28;20052;-71
2023/10/08 00:40:23;;;;;;;14.15;6.05;;;;;;;15.12;43.62;95026.56;4207609;28;20050;-69
2023/10/08 00:42:28;;;;;;;9.20;5.90;;;;;;;14.46;45.39;95030.69;4186569;28;20131;-72
2023/10/08 00:44:30;;;;;;;12.82;6.60;;;;;;;14.19;46.21;95022.25;4208827;28;20097;-71
2023/10/08 00:46:35;;;;;;;9.90;5.88;;;;;;;14.18;46.63;95017.19;4210761;28;20044;-70
2023/10/08 00:48:37;;;;;;;13.52;5.97;;;;;;;14.06;46.66;95011.47;4189289;28;20569;-71
2023/10/08 00:50:42;;;;;;;11.07;6.15;;;;;;;13.89;47.42;95019.44;4192344;28;20049;-70
2023/10/08 00:52:57;;;;;;;10.90;6.70;;;;;;;13.59;47.71;95022.84;4192683;28;20067;-69
2023/10/08 00:57:05;;;;;;;13.25;6.60;;;;;;;13.40;48.71;95010.88;4210380;28;20484;-69
2023/10/08 00:59:15;;;;;;;10.75;6.43;;;;;;;13.40;49.01;95009.09;4211259;28;20410;-69
2023/10/08 01:01:20;;;;;;;11.02;6.85;;;;;;;13.61;48.34;95010.34;4203863;28;20048;-69
2023/10/08 01:03:22;;;;;;;10.10;5.88;;;;;;;13.84;47.68;95002.53;4206074;28;20130;-71
2023/10/08 01:05:28;;;;;;;9.70;6.65;;;;;;;14.06;47.78;95004.38;4192939;28;20468;-70
2023/10/08 01:07:35;;;;;;;12.95;6.57;;;;;;;14.27;47.21;95006.41;4193333;28;20056;-70
2023/10/08 01:09:37;;;;;;;10.90;6.80;;;;;;;14.43;46.94;95010.75;4195047;28;20139;-69
2023/10/08 01:11:49;;;;;;;12.60;6.65;;;;;;;14.54;46.73;94999.00;4202696;28;20052;-71
2023/10/08 01:13:54;;;;;;;10.88;7.05;;;;;;;14.62;46.79;95006.84;4198889;28;20052;-71
2023/10/08 01:15:57;;;;;;;13.50;6.45;;;;;;;14.66;46.06;94997.59;4216847;28;20123;-72
2023/10/08 01:18:14;;;;;;;12.25;7.10;;;;;;;14.65;46.35;94998.59;4205281;28;20123;-70
2023/10/08 01:20:33;;;;;;;14.98;6.72;;;;;;;14.68;46.31;95008.78;4194914;28;20132;-69
2023/10/08 01:22:38;;;;;;;10.50;6.70;;;;;;;14.72;46.18;95002.16;4192366;28;20124;-69
2023/10/08 01:24:42;;;;;;;14.95;6.57;;;;;;;14.77;46.21;95000.81;4192792;28;20055;-70
2023/10/08 01:26:45;;;;;;;11.48;6.63;;;;;;;14.80;46.16;95003.94;4210248;28;20052;-71
2023/10/08 01:28:47;;;;;;;15.47;6.63;;;;;;;14.80;45.79;94997.81;4210106;28;20467;-70
2023/10/08 01:30:55;;;;;;;11.68;6.70;;;;;;;14.64;45.90;95004.03;4205905;28;20281;-70
2023/10/08 01:32:57;;;;;;;10.43;6.65;;;;;;;14.23;46.56;95004.28;4184800;28;20370;-71
2023/10/08 01:35:00;;;;;;;16.02;7.03;;;;;;;14.13;46.91;95009.75;4209852;28;20048;-69
2023/10/08 01:37:08;;;;;;;8.80;6.68;;;;;;;14.17;46.97;95007.63;4192696;28;20060;-70
2023/10/08 01:39:15;;;;;;;14.05;6.55;;;;;;;14.23;46.91;95010.38;4176642;28;20095;-71
2023/10/08 01:41:29;;;;;;;11.55;6.65;;;;;;;14.16;46.55;95006.81;4185247;28;20139;-68
2023/10/08 01:43:31;;;;;;;10.80;6.55;;;;;;;14.21;47.05;95008.91;4208290;28;20048;-70
2023/10/08 01:45:39;;;;;;;12.80;6.18;;;;;;;14.30;46.74;95003.44;4208785;28;20099;-69
2023/10/08 01:47:43;;;;;;;9.85;6.25;;;;;;;14.32;46.54;95005.88;4208841;28;20059;-68
2023/10/08 01:49:46;;;;;;;12.98;6.75;;;;;;;14.38;46.96;95009.63;4208811;28;20051;-71
2023/10/08 01:51:49;;;;;;;10.45;5.93;;;;;;;14.39;46.14;95022.66;4207461;28;20055;-71
2023/10/08 01:53:58;;;;;;;9.70;6.70;;;;;;;14.41;46.27;95011.91;4209701;28;20049;-70
2023/10/08 01:56:01;;;;;;;13.65;6.80;;;;;;;14.39;46.50;95006.00;4184820;28;20046;-71
2023/10/08 01:58:04;;;;;;;10.13;6.05;;;;;;;14.36;46.37;95017.72;4191611;28;20048;-69
2023/10/08 02:00:09;;;;;;;11.73;6.00;;;;;;;14.32;46.32;95006.69;4191888;28;20143;-70
2023/10/08 02:02:14;;;;;;;8.80;5.90;;;;;;;14.29;46.21;95012.31;4201076;28;20048;-70
2023/10/08 02:04:17;;;;;;;10.27;5.80;;;;;;;14.30;46.42;95002.59;4190651;28;20516;-69
2023/10/08 02:06:20;;;;;;;9.23;5.45;;;;;;;14.25;46.69;95005.75;4204201;28;20477;-72
2023/10/08 02:08:22;;;;;;;13.77;5.60;;;;;;;14.26;46.52;95010.03;4210186;28;20510;-68
2023/10/08 02:10:25;;;;;;;11.90;6.30;;;;;;;14.30;46.95;95010.50;4209687;28;20134;-70
2023/10/08 02:12:27;;;;;;;12.15;6.82;;;;;;;14.30;46.63;94998.16;4191739;28;20452;-70
2023/10/08 02:14:31;;;;;;;11.98;6.28;;;;;;;14.32;46.91;95006.69;4191510;28;20147;-71
2023/10/08 02:16:33;;;;;;;11.02;7.03;;;;;;;14.32;47.12;95001.41;4210141;28;20387;-72
2023/10/08 02:18:36;;;;;;;11.88;6.82;;;;;;;14.36;46.68;95001.91;4197016;28;20226;-71
2023/10/08 02:20:39;;;;;;;11.43;6.55;;;;;;;14.38;46.89;94999.91;4209544;28;20097;-70
2023/10/08 02:22:41;;;;;;;12.88;6.40;;;;;;;14.41;46.62;94999.56;4184656;28;20169;-72
2023/10/08 02:24:43;;;;;;;14.32;6.70;;;;;;;14.38;46.69;94994.63;4182194;28;20701;-68
2023/10/08 02:26:45;;;;;;;12.70;6.95;;;;;;;14.39;46.93;95003.34;4210407;28;20109;-69
2023/10/08 02:28:48;;;;;;;9.80;6.68;;;;;;;14.27;46.49;94997.69;4208740;28;20097;-70
2023/10/08 02:30:51;;;;;;;10.27;7.10;;;;;;;14.14;47.18;94995.63;4209489;28;20144;-70
2023/10/08 02:32:53;;;;;;;13.65;7.00;;;;;;;14.11;47.15;94990.69;4210257;28;20302;-71
2023/10/08 02:34:56;;;;;;;12.98;7.22;;;;;;;14.11;47.24;94990.69;4176690;28;20049;-70
2023/10/08 02:36:59;;;;;;;10.50;6.70;;;;;;;14.15;47.43;94991.97;4208708;28;20496;-70
2023/10/08 02:39:26;;;;;;;9.98;6.57;;;;;;;14.16;47.02;94992.81;4191589;28;20534;-68
2023/10/08 02:41:28;;;;;;;11.77;7.22;;;;;;;14.14;47.59;94993.78;4177724;28;20048;-71
2023/10/08 02:43:30;;;;;;;10.38;6.25;;;;;;;14.13;47.28;94992.16;4189276;28;20060;-70
2023/10/08 02:45:37;;;;;;;10.18;6.50;;;;;;;14.09;46.92;94996.13;4209169;28;20139;-69
2023/10/08 02:47:44;;;;;;;13.80;6.43;;;;;;;14.03;47.13;94988.09;4191944;28;20060;-72
2023/10/08 02:49:51;;;;;;;10.25;6.45;;;;;;;13.98;47.57;94983.38;4174107;28;20141;-67
2023/10/08 02:51:54;;;;;;;11.95;7.47;;;;;;;14.01;47.63;94993.53;4191204;28;20218;-70
2023/10/08 02:53:56;;;;;;;13.35;6.90;;;;;;;14.07;47.59;94997.31;4208975;28;20060;-71
2023/10/08 02:55:58;;;;;;;11.75;6.13;;;;;;;14.06;47.27;94991.19;4205892;28;20058;-70
2023/10/08 02:58:04;;;;;;;11.57;6.85;;;;;;;14.04;47.23;94998.44;4203074;28;20504;-70
2023/10/08 03:00:12;;;;;;;11.75;6.85;;;;;;;13.91;47.41;95000.84;4207249;28;20079;-70
2023/10/08 03:02:18;;;;;;;10.65;6.35;;;;;;;13.91;47.79;95003.47;4206010;28;20058;-71
2023/10/08 03:04:22;;;;;;;10.00;6.65;;;;;;;13.91;46.96;94996.38;4200244;28;20075;-70
2023/10/08 03:06:24;;;;;;;16.08;6.90;;;;;;;13.86;47.38;94998.72;4200055;28;20043;-70
2023/10/08 03:08:30;;;;;;;10.05;5.95;;;;;;;13.90;47.38;95002.66;4191580;28;20113;-71
2023/10/08 03:10:33;;;;;;;10.38;5.70;;;;;;;13.90;47.18;94994.75;4175374;28;20049;-69
2023/10/08 03:12:36;;;;;;;9.88;5.95;;;;;;;13.90;47.10;94994.75;4207265;28;20716;-70
2023/10/08 03:14:49;;;;;;;13.48;6.50;;;;;;;13.88;47.46;94994.09;4209068;28;20071;-71
2023/10/08 03:16:54;;;;;;;11.82;5.35;;;;;;;13.91;47.17;94998.19;4207809;28;20079;-69
2023/10/08 03:18:57;;;;;;;10.63;6.30;;;;;;;13.90;47.42;94991.31;4208926;28;20052;-71
2023/10/08 03:21:03;;;;;;;11.18;6.45;;;;;;;13.89;47.83;94994.91;4209179;28;20401;-70
2023/10/08 03:23:25;;;;;;;10.20;6.18;;;;;;;13.93;47.61;94990.94;4191972;28;20060;-70
2023/10/08 03:25:30;;;;;;;12.73;5.93;;;;;;;13.89;47.89;94993.09;4208718;28;20052;-70
2023/10/08 03:27:41;;;;;;;11.07;5.80;;;;;;;13.78;48.29;94993.47;4193672;28;20048;-71
2023/10/08 03:29:43;;;;;;;10.57;6.90;;;;;;;13.69;48.80;94991.88;4206551;28;20074;-71
2023/10/08 03:33:51;;;;;;;10.15;7.03;;;;;;;13.76;48.29;94989.38;4216072;28;20476;-71
2023/10/08 03:35:55;;;;;;;;;;;;;;;13.74;48.30;94981.66;4206895;28;20047;-69
2023/10/08 03:38:18;;;;;;;12.97;6.77;;;;;;;13.72;48.84;94981.00;4207842;28;20036;-71
2023/10/08 03:40:31;;;;;;;12.55;7.13;;;;;;;13.61;48.63;94984.81;4204109;28;20448;-71
2023/10/08 03:42:34;;;;;;;18.60;6.95;;;;;;;13.56;48.59;94975.81;4208087;28;20056;-71
2023/10/08 03:44:37;;;;;;;15.70;7.18;;;;;;;13.54;49.36;94972.53;4203462;28;20775;-70
2023/10/08 03:46:43;;;;;;;15.63;7.30;;;;;;;13.47;49.45;94969.75;4208075;28;20435;-69
2023/10/08 03:48:45;;;;;;;11.07;6.45;;;;;;;13.44;49.36;94975.34;4201658;28;20088;-71
2023/10/08 03:50:56;;;;;;;11.88;6.70;;;;;;;13.45;49.83;94962.03;4202468;28;20087;-69
2023/10/08 03:52:58;;;;;;;13.88;6.57;;;;;;;13.52;49.55;94970.88;4197007;28;20079;-69
2023/10/08 03:57:28;;;;;;;10.55;6.50;;;;;;;13.51;49.47;94961.34;4189753;28;20063;-69
2023/10/08 03:59:40;;;;;;;12.48;7.07;;;;;;;13.57;49.20;94965.09;4207164;28;20052;-71
2023/10/08 04:01:43;;;;;;;11.77;6.60;;;;;;;13.62;49.31;94961.97;4208970;28;20056;-70
2023/10/08 04:06:14;;;;;;;17.10;7.35;;;;;;;13.41;50.25;94963.34;4204046;28;20056;-70
2023/10/08 04:08:17;;;;;;;13.98;6.43;;;;;;;13.39;50.07;94952.19;4191877;28;20052;-73
2023/10/08 04:12:43;;;;;;;9.98;6.05;;;;;;;13.40;50.07;94955.63;4204089;28;20052;-71
2023/10/08 04:14:47;;;;;;;12.25;6.07;;;;;;;13.42;50.28;94959.75;4200190;28;20075;-71
2023/10/08 04:16:51;;;;;;;13.70;6.25;;;;;;;12.79;50.84;94965.78;4209029;28;20051;-72
2023/10/08 04:18:55;;;;;;;11.68;6.35;;;;;;;12.73;51.04;94966.44;4211961;28;20044;-70
2023/10/08 04:21:04;;;;;;;9.15;5.68;;;;;;;12.74;51.27;94966.28;4206846;28;20440;-72
2023/10/08 04:23:18;;;;;;;10.98;6.20;;;;;;;12.61;51.58;94977.28;4194139;28;20442;-70
2023/10/08 04:25:23;;;;;;;12.02;6.80;;;;;;;12.62;51.69;94967.59;4194201;28;20059;-69
2023/10/08 04:27:26;;;;;;;11.90;6.60;;;;;;;12.61;51.31;94964.16;4210188;28;20058;-71
2023/10/08 04:29:32;;;;;;;10.73;5.82;;;;;;;12.52;51.47;94965.13;4211042;28;20058;-69
2023/10/08 04:31:39;;;;;;;11.57;6.45;;;;;;;12.44;51.47;94957.25;4189987;28;20052;-72
2023/10/08 04:33:43;;;;;;;10.85;5.85;;;;;;;12.40;51.56;94955.94;4193478;28;20194;-72
2023/10/08 04:35:48;;;;;;;11.20;6.18;;;;;;;12.36;51.80;94965.13;4210185;28;20553;-71
2023/10/08 04:37:52;;;;;;;12.27;7.20;;;;;;;12.34;52.00;94962.66;4211831;28;20051;-71
2023/10/08 04:39:59;;;;;;;13.60;6.03;;;;;;;12.36;51.94;94963.31;4202834;28;20051;-72
2023/10/08 04:42:12;;;;;;;15.50;6.95;;;;;;;12.50;52.20;94967.94;4193951;28;20052;-71
2023/10/08 04:44:15;;;;;;;16.60;5.90;;;;;;;12.29;51.99;94965.78;4194597;28;20115;-72
2023/10/08 04:46:46;;;;;;;11.88;6.38;;;;;;;12.42;51.99;94967.09;4186508;28;20083;-72
2023/10/08 04:48:52;;;;;;;11.70;6.90;;;;;;;12.23;52.54;94974.28;4210660;28;20055;-70
2023/10/08 04:50:59;;;;;;;16.42;6.93;;;;;;;11.98;53.20;94968.22;4210722;28;20495;-70
2023/10/08 04:53:07;;;;;;;13.07;6.68;;;;;;;12.25;52.92;94974.16;4194001;28;20184;-71
2023/10/08 04:55:16;;;;;;;14.05;6.65;;;;;;;12.43;52.52;94976.63;4210518;28;20094;-70
2023/10/08 04:57:22;;;;;;;13.60;6.53;;;;;;;12.64;51.64;94976.94;4188441;28;20063;-70
2023/10/08 04:59:32;;;;;;;11.60;6.05;;;;;;;12.82;51.53;94971.53;4210897;28;20144;-72
2023/10/08 05:02:12;;;;;;;15.35;6.65;;;;;;;12.96;51.47;94970.03;4211064;28;20105;-70
2023/10/08 05:04:45;;;;;;;12.98;6.70;;;;;;;13.20;50.75;94973.59;4210730;28;20063;-71
2023/10/08 05:08:59;;;;;;;11.27;6.97;;;;;;;13.52;50.30;94972.69;4211656;28;20056;-71
2023/10/08 05:11:14;;;;;;;11.82;5.90;;;;;;;13.63;50.12;94976.78;4183980;28;20091;-72
2023/10/08 05:13:21;;;;;;;13.50;6.80;;;;;;;13.68;50.33;94975.28;4210630;28;20048;-72
2023/10/08 05:15:33;;;;;;;14.45;6.45;;;;;;;13.76;50.42;94971.75;4210162;28;20052;-70
2023/10/08 05:17:56;;;;;;;10.95;6.70;;;;;;;13.85;49.75;94978.66;4196031;28;20176;-71
2023/10/08 05:24:38;;;;;;;14.23;7.90;;;;;;;14.09;49.03;94979.53;4202103;28;19971;-70
2023/10/08 05:26:59;;;;;;;15.07;7.47;;;;;;;14.13;49.07;94971.09;4211497;28;20044;-71
2023/10/08 05:29:01;;;;;;;13.25;7.15;;;;;;;14.19;49.05;94974.81;4181757;28;20159;-73
2023/10/08 05:37:42;;;;;;;12.25;7.03;;;;;;;14.48;48.12;94979.41;4199933;28;20412;-73
2023/10/08 05:39:54;;;;;;;11.15;6.50;;;;;;;14.48;48.19;94984.69;4209772;28;20083;-70
2023/10/08 05:48:27;;;;;;;13.45;6.97;;;;;;;14.88;47.03;94979.28;4209250;28;20054;-69
2023/10/08 05:50:39;;;;;;;12.30;6.55;;;;;;;14.92;47.09;94985.84;4194614;28;20051;-71
2023/10/08 05:53:01;;;;;;;13.07;6.70;;;;;;;15.00;46.82;94998.97;4210046;28;20087;-73
2023/10/08 05:55:15;;;;;;;16.10;6.70;;;;;;;14.97;46.44;94995.84;4209923;28;20083;-71
2023/10/08 05:57:35;;;;;;;11.90;6.53;;;;;;;15.04;46.35;94997.59;4206455;28;20157;-69
2023/10/08 06:02:07;;;;;;;16.27;6.10;;;;;;;15.23;45.89;95004.19;4210079;28;20147;-72
2023/10/08 06:04:53;;;;;;;14.77;7.43;;;;;;;15.31;46.13;95000.63;4176559;28;20084;-73
2023/10/08 06:06:46;;;;;;;12.13;6.60;;;;;;;15.36;45.85;95001.75;4206206;28;20091;-71
2023/10/08 06:09:04;;;;;;;12.95;7.25;;;;;;;15.46;45.66;94993.53;4192378;28;20060;-72
2023/10/08 06:11:17;;;;;;;17.13;7.43;;;;;;;15.58;45.55;94991.28;4182290;28;20059;-73
2023/10/08 06:13:29;;;;;;;16.98;7.68;;;;;;;15.60;45.09;94988.47;4209639;28;20052;-72
2023/10/08 06:15:48;;;;;;;18.48;7.50;;;;;;;15.66;45.43;94982.44;4207212;28;20048;-72
2023/10/08 06:18:04;;;;;;;19.85;7.72;;;;;;;15.80;44.84;94979.00;4200395;28;20570;-71
2023/10/08 06:20:09;;;;;;;16.25;7.75;;;;;;;15.82;44.86;94987.56;4208225;28;20063;-73
2023/10/08 06:22:11;;;;;;;14.90;7.90;;;;;;;15.75;45.08;94981.38;4209274;28;20067;-73
2023/10/08 06:24:16;;;;;;;12.30;8.10;;;;;;;15.63;45.26;94980.97;4192839;28;20052;-72
2023/10/08 06:26:21;;;;;;;18.60;8.77;;;;;;;15.53;45.28;94968.06;4175828;28;20075;-73
2023/10/08 06:28:25;;;;;;;21.08;9.88;;;;;;;15.48;45.10;94982.81;4208967;28;20062;-71
2023/10/08 06:30:34;;;;;;;21.00;9.70;;;;;;;15.59;45.40;94979.69;4188236;28;20056;-73
2023/10/08 06:32:38;;;;;;;20.67;8.85;;;;;;;15.35;45.62;94984.25;4201972;28;20043;-71
2023/10/08 06:34:40;;;;;;;18.45;8.15;;;;;;;15.14;45.84;94987.63;4209457;28;20110;-71
2023/10/08 06:36:42;;;;;;;16.02;8.20;;;;;;;15.32;45.94;94987.28;4188924;28;20044;-71
2023/10/08 06:38:49;;;;;;;17.52;7.90;;;;;;;15.50;45.47;94988.72;4191154;28;20140;-72
2023/10/08 06:40:52;;;;;;;12.43;7.32;;;;;;;15.50;45.67;94978.16;4210085;28;20055;-74
2023/10/08 06:42:57;;;;;;;18.50;7.97;;;;;;;15.54;45.78;94982.91;4208197;28;20056;-72
2023/10/08 06:44:59;;;;;;;18.83;7.97;;;;;;;15.65;45.78;94975.53;4190656;28;20048;-69
2023/10/08 06:47:09;;;;;;;15.60;7.60;;;;;;;15.81;45.47;94975.38;4193346;28;20051;-73
2023/10/08 06:49:11;;;;;;;12.77;7.78;;;;;;;15.61;45.58;94980.34;4210452;28;20051;-71
2023/10/08 06:51:17;;;;;;;16.00;7.90;;;;;;;15.73;45.27;94980.75;4207838;28;20512;-70
2023/10/08 06:53:21;;;;;;;19.83;7.95;;;;;;;15.82;45.29;94979.63;4208461;28;20095;-72
2023/10/08 06:55:27;;;;;;;15.18;7.38;;;;;;;16.07;44.98;94974.03;4192172;28;20131;-70
2023/10/08 06:57:32;;;;;;;18.45;8.52;;;;;;;16.23;44.47;94968.50;4208156;28;20056;-75
2023/10/08 06:59:37;;;;;;;20.88;7.88;;;;;;;16.21;44.63;94970.53;4209142;28;20144;-72
2023/10/08 07:01:45;;;;;;;15.18;7.38;;;;;;;16.14;44.56;94981.03;4198047;28;20071;-73
2023/10/08 07:03:50;;;;;;;17.63;7.45;;;;;;;15.70;45.27;94973.97;4176894;28;20198;-73
2023/10/08 07:05:54;;;;;;;15.55;7.15;;;;;;;15.88;45.25;94973.63;4201691;28;20450;-72
2023/10/08 07:07:58;;;;;;;12.57;7.30;;;;;;;16.02;44.92;94973.75;4209868;28;20607;-72
2023/10/08 07:10:00;;;;;;;16.80;6.65;;;;;;;15.97;44.88;94972.50;4191776;28;20052;-73
2023/10/08 07:12:06;;;;;;;18.42;7.32;;;;;;;16.15;44.52;94966.81;4191528;28;20541;-71
2023/10/08 07:14:10;;;;;;;18.35;7.43;;;;;;;16.40;44.23;94970.94;4206214;28;20084;-72
2023/10/08 07:16:17;;;;;;;22.10;7.15;;;;;;;16.53;43.68;94958.63;4206962;28;20147;-71
2023/10/08 07:18:24;;;;;;;25.35;8.32;;;;;;;16.74;43.60;94960.47;4209828;28;20055;-72
2023/10/08 07:20:28;;;;;;;17.88;7.82;;;;;;;16.94;43.13;94963.28;4192044;28;20064;-73
2023/10/08 07:22:31;;;;;;;15.80;6.40;;;;;;;17.14;41.05;94954.66;4208792;28;20486;-73
2023/10/08 07:24:34;;;;;;;23.40;8.10;;;;;;;17.43;40.54;94966.88;4208289;28;20745;-72
2023/10/08 07:26:36;;;;;;;13.93;6.03;;;;;;;17.73;39.46;94942.78;4208421;28;20495;-72
2023/10/08 07:28:41;;;;;;;11.80;5.32;;;;;;;17.98;37.21;94949.25;4189578;28;20100;-72
2023/10/08 07:30:46;;;;;;;13.27;5.00;;;;;;;18.31;35.96;94942.41;4193525;28;20496;-73
2023/10/08 07:32:50;;;;;;;9.15;4.43;;;;;;;18.56;33.59;94947.94;4202192;28;20055;-73
2023/10/08 07:34:57;;;;;;;12.50;5.40;;;;;;;18.76;33.11;94940.81;4190235;28;20079;-72
2023/10/08 07:37:00;;;;;;;6.47;3.53;;;;;;;19.03;32.30;94939.00;4208437;28;20087;-74
2023/10/08 07:39:08;;;;;;;8.40;3.50;;;;;;;19.21;31.68;94935.72;4209026;28;20052;-73
2023/10/08 07:41:12;;;;;;;6.82;3.50;;;;;;;19.41;31.38;94932.22;4174940;28;20060;-74
2023/10/08 07:43:14;;;;;;;8.48;3.75;;;;;;;19.53;31.24;94927.88;4208149;28;20056;-75
2023/10/08 07:45:17;;;;;;;12.43;5.10;;;;;;;19.61;31.03;94924.97;4189779;28;20055;-75
2023/10/08 07:47:21;;;;;;;8.15;4.03;;;;;;;19.83;31.13;94916.75;4191517;28;20472;-73
2023/10/08 07:49:25;;;;;;;7.43;3.63;;;;;;;19.96;30.73;94921.19;4212250;28;20059;-73
2023/10/08 07:51:27;;;;;;;6.50;3.60;;;;;;;20.04;30.44;94920.97;4212526;28;20090;-73
2023/10/08 07:53:38;;;;;;;8.52;3.60;;;;;;;20.14;30.36;94918.66;4208454;28;20071;-72
2023/10/08 07:55:41;;;;;;;6.75;3.35;;;;;;;20.21;30.32;94918.63;4200113;28;20052;-72
2023/10/08 07:57:44;;;;;;;6.70;3.20;;;;;;;20.33;30.34;94922.25;4211740;28;20048;-73
2023/10/08 07:59:47;;;;;;;7.70;3.60;;;;;;;20.54;29.77;94920.25;4212114;28;20060;-72
2023/10/08 08:01:52;;;;;;;;;;;;;;;20.51;29.78;94920.69;4212853;28;20464;-73
2023/10/08 08:03:54;;;;;;;8.45;3.33;;;;;;;20.52;30.13;94923.16;4211633;28;20333;-73
2023/10/08 08:06:00;;;;;;;10.82;3.80;;;;;;;20.41;30.16;94927.31;4211907;28;20048;-72
2023/10/08 08:08:05;;;;;;;6.00;3.60;;;;;;;20.50;30.37;94916.38;4207926;28;20044;-73
2023/10/08 08:10:10;;;;;;;11.90;3.80;;;;;;;20.68;30.21;94908.50;4204480;28;20045;-76
2023/10/08 08:12:13;;;;;;;6.55;3.55;;;;;;;20.71;30.24;94908.06;4190815;28;20103;-74
2023/10/08 08:14:16;;;;;;;8.57;3.88;;;;;;;20.76;29.88;94907.44;4194725;28;20053;-73
2023/10/08 08:16:20;;;;;;;6.63;3.42;;;;;;;20.85;29.92;94914.13;4211135;28;20121;-73
2023/10/08 08:18:22;;;;;;;5.60;3.33;;;;;;;20.91;29.51;94901.75;4212857;28;20757;-72
2023/10/08 08:20:34;;;;;;;8.05;3.95;;;;;;;20.77;29.63;94907.22;4194149;28;20416;-73
2023/10/08 08:22:40;;;;;;;9.93;3.88;;;;;;;20.88;29.58;94907.53;4209431;28;20180;-73
2023/10/08 08:24:45;;;;;;;7.10;3.80;;;;;;;21.01;29.27;94905.56;4194367;28;20163;-74
2023/10/08 08:27:08;;;;;;;8.45;3.72;;;;;;;21.07;29.35;94896.69;4207496;28;20076;-74
2023/10/08 08:29:15;;;;;;;8.83;3.80;;;;;;;21.18;29.07;94903.16;4202169;28;20055;-75
2023/10/08 08:31:19;;;;;;;7.15;3.53;;;;;;;21.29;29.55;94893.63;4205801;28;20101;-73
2023/10/08 08:33:29;;;;;;;6.50;4.05;;;;;;;21.41;29.18;94904.38;4187615;28;20071;-75
2023/10/08 08:35:31;;;;;;;8.60;4.22;;;;;;;21.59;29.29;94895.59;4194147;28;20139;-75
2023/10/08 08:37:35;;;;;;;7.55;4.15;;;;;;;21.38;29.41;94892.31;4185872;28;20574;-74
2023/10/08 08:39:38;;;;;;;;;;;;;;;21.03;29.94;94895.50;4207179;28;20150;-74
2023/10/08 08:41:39;;;;;;;7.53;4.40;;;;;;;20.94;29.81;94904.00;4210732;28;19962;-75
2023/10/08 08:43:58;;;;;;;6.40;4.03;;;;;;;20.96;29.85;94896.63;4210956;28;20048;-74
2023/10/08 08:46:03;;;;;;;6.63;3.92;;;;;;;20.92;29.87;94890.09;4176417;28;20055;-73
2023/10/08 08:48:07;;;;;;;12.90;5.03;;;;;;;20.84;30.20;94889.34;4173895;28;20157;-73
2023/10/08 08:50:10;;;;;;;8.60;4.20;;;;;;;21.06;30.17;94872.97;4187504;28;20049;-76
2023/10/08 08:52:14;;;;;;;7.57;4.43;;;;;;;21.28;29.85;94884.00;4211996;28;20504;-75
2023/10/08 08:54:17;;;;;;;11.07;4.85;;;;;;;21.30;29.80;94873.16;4184633;28;20045;-73
2023/10/08 08:56:18;;;;;;;9.75;4.60;;;;;;;21.25;29.93;94882.59;4194080;28;20444;-71
2023/10/08 08:58:23;;;;;;;10.18;4.25;;;;;;;21.36;29.92;94875.72;4176507;28;20041;-75
2023/10/08 09:00:30;;;;;;;8.15;4.30;;;;;;;21.47;29.91;94876.88;4208829;28;20052;-75
2023/10/08 09:02:35;;;;;;;8.27;4.30;;;;;;;21.45;29.70;94861.09;4193279;28;20128;-74
2023/10/08 09:04:37;;;;;;;8.60;4.38;;;;;;;21.46;30.03;94877.91;4209757;28;20080;-74
2023/10/08 09:06:40;;;;;;;8.57;4.28;;;;;;;21.53;29.82;94878.66;4184760;28;20382;-74
2023/10/08 09:08:45;;;;;;;10.95;4.68;;;;;;;21.35;29.83;94875.94;4192456;28;20127;-73
2023/10/08 09:10:54;;;;;;;8.95;4.38;;;;;;;21.42;29.93;94880.22;4211509;28;20063;-74
2023/10/08 09:12:59;;;;;;;6.85;4.22;;;;;;;21.33;29.61;94870.03;4207375;28;20044;-76
2023/10/08 09:15:04;;;;;;;10.50;4.47;;;;;;;21.20;29.67;94874.44;4206299;28;20059;-74
2023/10/08 09:17:07;;;;;;;7.97;4.65;;;;;;;21.25;30.06;94863.97;4206803;28;20080;-74
2023/10/08 09:19:15;;;;;;;10.55;4.68;;;;;;;21.53;29.71;94860.00;4210755;28;20102;-74
2023/10/08 09:21:19;;;;;;;13.77;4.10;;;;;;;21.79;29.65;94863.34;4205481;28;20089;-73
2023/10/08 09:23:24;;;;;;;10.95;3.83;;;;;;;21.88;29.16;94860.16;4204833;28;20070;-76
2023/10/08 09:25:28;;;;;;;8.43;4.13;;;;;;;22.12;29.15;94865.59;4191396;28;20103;-75
2023/10/08 09:27:30;;;;;;;8.05;4.30;;;;;;;22.23;29.05;94856.03;4209450;28;20044;-73
2023/10/08 09:29:39;;;;;;;5.93;4.00;;;;;;;22.23;28.81;94853.34;4189118;28;20072;-74
2023/10/08 09:31:48;;;;;;;16.23;4.30;;;;;;;22.21;28.93;94861.53;4209402;28;20109;-75
2023/10/08 09:33:56;;;;;;;9.80;4.03;;;;;;;22.19;28.88;94860.16;4210093;28;20052;-73
2023/10/08 09:36:02;;;;;;;10.10;4.60;;;;;;;22.25;28.63;94859.28;4211287;28;20101;-77
2023/10/08 09:38:08;;;;;;;11.57;4.28;;;;;;;22.53;28.44;94860.50;4210429;28;20318;-76
2023/10/08 09:40:11;;;;;;;10.38;4.43;;;;;;;22.60;28.67;94855.88;4205462;28;20079;-74
2023/10/08 09:42:16;;;;;;;12.00;4.40;;;;;;;22.57;28.14;94851.00;4198992;28;20636;-74
2023/10/08 09:44:25;;;;;;;12.90;5.78;;;;;;;22.64;28.38;94847.16;4192559;28;20188;-73
2023/10/08 09:46:38;;;;;;;9.00;3.83;;;;;;;22.61;28.24;94844.97;4191646;28;20048;-73
2023/10/08 09:48:53;;;;;;;12.18;4.40;;;;;;;22.82;28.67;94843.59;4181881;28;20055;-75
2023/10/08 09:50:58;;;;;;;8.73;4.53;;;;;;;23.10;27.97;94840.25;4190110;28;20056;-74
2023/10/08 09:53:16;;;;;;;6.93;3.72;;;;;;;23.05;27.75;94832.09;4193008;28;20130;-74
2023/10/08 09:55:20;;;;;;;13.93;4.28;;;;;;;22.93;28.32;94836.63;4210702;28;20047;-73
2023/10/08 09:57:30;;;;;;;9.32;4.53;;;;;;;22.77;28.22;94848.81;4212288;28;20055;-74
2023/10/08 09:59:33;;;;;;;9.07;3.60;;;;;;;22.79;28.02;94836.03;4205459;28;20158;-75
2023/10/08 10:01:40;;;;;;;6.18;3.70;;;;;;;22.74;28.43;94835.13;4176957;28;20080;-75
2023/10/08 10:03:45;;;;;;;8.75;3.67;;;;;;;22.75;28.49;94832.19;4192479;28;20049;-73
2023/10/08 10:05:50;;;;;;;9.82;3.60;;;;;;;22.64;28.63;94827.66;4209593;28;20145;-74
2023/10/08 10:07:55;;;;;;;9.43;4.18;;;;;;;22.41;28.91;94836.44;4210613;28;20055;-74
2023/10/08 10:09:59;;;;;;;8.85;4.25;;;;;;;22.25;29.27;94827.25;4187053;28;20056;-77
2023/10/08 10:12:00;;;;;;;7.90;4.38;;;;;;;22.28;29.15;94835.63;4186379;28;20136;-73
2023/10/08 10:14:06;;;;;;;8.48;4.40;;;;;;;22.29;29.35;94828.44;4189581;28;20397;-76
2023/10/08 10:16:09;;;;;;;9.30;3.75;;;;;;;22.13;29.36;94829.03;4209214;28;20147;-74
2023/10/08 10:18:25;;;;;;;8.00;3.67;;;;;;;22.13;29.78;94821.03;4186372;28;20145;-74
2023/10/08 10:20:28;;;;;;;7.03;3.40;;;;;;;22.25;29.13;94819.25;4195943;28;20504;-73
2023/10/08 10:22:49;;;;;;;8.38;3.38;;;;;;;22.45;29.21;94817.06;4172402;28;20127;-73
2023/10/08 10:24:52;;;;;;;9.57;4.22;;;;;;;22.58;28.59;94812.56;4202027;28;20066;-76
2023/10/08 10:27:10;;;;;;;13.48;3.80;;;;;;;22.78;28.76;94798.88;4189389;28;20151;-75